createdAt,value
2022-08-27T00:02:09.832Z,100974.60
2022-08-27T00:04:39.277Z,100971.40
2022-08-27T00:07:08.445Z,100966.60
2022-08-27T00:09:37.726Z,100962.60
2022-08-27T00:12:08.448Z,100963.20
2022-08-27T00:14:38.602Z,100971.40
2022-08-27T00:17:07.816Z,100968.60
2022-08-27T00:19:36.749Z,100964.80
2022-08-27T00:22:06.469Z,100961.60
2022-08-27T00:24:36.139Z,100958.80
2022-08-27T00:27:17.283Z,100963.80
2022-08-27T00:29:47.112Z,100958.40
2022-08-27T00:32:16.178Z,100955.60
2022-08-27T00:34:44.222Z,100956.00
2022-08-27T00:37:12.130Z,100955.60
2022-08-27T00:39:39.901Z,100953.00
2022-08-27T00:42:08.312Z,100948.60
2022-08-27T00:44:36.450Z,100955.20
2022-08-27T00:47:13.059Z,100949.80
2022-08-27T00:49:57.282Z,100949.00
2022-08-27T00:52:32.354Z,100950.80
2022-08-27T00:55:14.907Z,100948.20
2022-08-27T00:57:47.999Z,100950.20
2022-08-27T01:00:18.723Z,100953.40
2022-08-27T01:02:47.659Z,100952.00
2022-08-27T01:05:25.372Z,100950.20
2022-08-27T01:07:59.404Z,100955.00
2022-08-27T01:10:30.381Z,100956.40
2022-08-27T01:12:58.634Z,100952.20
2022-08-27T01:15:29.013Z,100950.40
2022-08-27T01:17:58.602Z,100948.00
2022-08-27T01:20:34.932Z,100951.40
2022-08-27T01:23:55.322Z,100950.40
2022-08-27T01:26:23.505Z,100953.80
2022-08-27T01:28:53.104Z,100956.60
2022-08-27T01:31:20.939Z,100954.80
2022-08-27T01:34:03.682Z,100951.60
2022-08-27T01:36:32.135Z,100951.60
2022-08-27T01:39:00.693Z,100949.00
2022-08-27T01:41:28.480Z,100944.00
2022-08-27T01:43:56.765Z,100944.80
2022-08-27T01:46:28.594Z,100944.60
2022-08-27T01:48:56.415Z,100945.40
2022-08-27T01:51:24.242Z,100942.60
2022-08-27T01:53:51.935Z,100949.80
2022-08-27T01:56:19.857Z,100945.60
2022-08-27T01:58:47.560Z,100944.20
2022-08-27T02:01:19.473Z,100943.80
2022-08-27T02:03:48.392Z,100948.80
2022-08-27T02:06:16.222Z,100942.60
2022-08-27T02:08:43.986Z,100942.00
2022-08-27T02:11:12.351Z,100941.60
2022-08-27T02:13:40.273Z,100944.00
2022-08-27T02:16:09.031Z,100943.80
2022-08-27T02:18:38.411Z,100945.00
2022-08-27T02:21:10.386Z,100941.60
2022-08-27T02:23:38.352Z,100945.60
2022-08-27T02:26:06.354Z,100945.40
2022-08-27T02:28:35.871Z,100943.20
2022-08-27T02:31:05.022Z,100946.20
2022-08-27T02:33:35.001Z,100947.20
2022-08-27T02:36:03.770Z,100947.00
2022-08-27T02:38:34.173Z,100944.00
2022-08-27T02:41:01.915Z,100945.00
2022-08-27T02:43:29.765Z,100943.60
2022-08-27T02:45:57.482Z,100940.60
2022-08-27T02:48:25.541Z,100938.00
2022-08-27T02:50:54.737Z,100938.40
2022-08-27T02:53:22.397Z,100940.60
2022-08-27T02:55:52.237Z,100942.20
2022-08-27T02:58:19.914Z,100939.80
2022-08-27T03:00:48.303Z,100942.80
2022-08-27T03:03:16.547Z,100942.20
2022-08-27T03:05:45.291Z,100943.20
2022-08-27T03:08:13.122Z,100947.00
2022-08-27T03:10:41.893Z,100950.40
2022-08-27T03:13:09.680Z,100949.40
2022-08-27T03:15:37.467Z,100952.20
2022-08-27T03:18:21.552Z,100947.60
2022-08-27T03:20:55.964Z,100947.20
2022-08-27T03:23:32.845Z,100944.80
2022-08-27T03:26:09.967Z,100945.40
2022-08-27T03:28:38.038Z,100942.00
2022-08-27T03:31:15.875Z,100947.60
2022-08-27T03:33:43.577Z,100942.80
2022-08-27T03:36:14.129Z,100946.00
2022-08-27T03:38:41.873Z,100940.60
2022-08-27T03:41:09.935Z,100944.40
2022-08-27T03:43:37.632Z,100940.40
2022-08-27T03:46:08.606Z,100938.80
2022-08-27T03:48:36.645Z,100935.20
2022-08-27T03:51:09.748Z,100938.00
2022-08-27T03:53:40.549Z,100934.40
2022-08-27T03:56:09.121Z,100932.20
2022-08-27T03:58:38.991Z,100933.80
2022-08-27T04:01:08.472Z,100936.00
2022-08-27T04:03:37.413Z,100938.00
2022-08-27T04:06:05.504Z,100942.80
2022-08-27T04:08:33.326Z,100946.20
2022-08-27T04:11:05.894Z,100947.80
2022-08-27T04:13:33.721Z,100947.20
2022-08-27T04:16:02.061Z,100945.20
2022-08-27T04:18:29.799Z,100943.40
2022-08-27T04:20:57.905Z,100944.40
2022-08-27T04:23:25.624Z,100951.20
2022-08-27T04:25:53.312Z,100947.60
2022-08-27T04:28:21.312Z,100947.80
2022-08-27T04:30:49.250Z,100943.40
2022-08-27T04:33:17.369Z,100947.80
2022-08-27T04:35:45.082Z,100951.40
2022-08-27T04:38:12.990Z,100945.00
2022-08-27T04:40:59.170Z,100942.60
2022-08-27T04:43:28.251Z,100948.60
2022-08-27T04:45:56.563Z,100944.40
2022-08-27T04:48:25.721Z,100946.80
2022-08-27T04:50:53.663Z,100949.80
2022-08-27T04:53:22.113Z,100954.40
2022-08-27T04:55:55.933Z,100949.40
2022-08-27T04:58:26.335Z,100952.00
2022-08-27T05:01:01.611Z,100947.20
2022-08-27T05:03:29.416Z,100948.80
2022-08-27T05:06:04.802Z,100950.80
2022-08-27T05:08:34.025Z,100942.00
2022-08-27T05:11:02.365Z,100948.20
2022-08-27T05:13:30.351Z,100949.00
2022-08-27T05:16:08.339Z,100951.20
2022-08-27T05:18:47.693Z,100952.80
2022-08-27T05:21:34.094Z,100951.40
2022-08-27T05:24:04.237Z,100954.00
2022-08-27T05:26:34.949Z,100958.20
2022-08-27T05:29:06.308Z,100959.20
2022-08-27T05:31:34.988Z,100957.80
2022-08-27T05:34:10.744Z,100952.20
2022-08-27T05:36:47.835Z,100953.20
2022-08-27T05:39:17.808Z,100956.20
2022-08-27T05:41:45.674Z,100956.80
2022-08-27T05:47:03.654Z,100961.40
2022-08-27T05:49:31.799Z,100962.00
2022-08-27T05:51:59.542Z,100968.00
2022-08-27T05:54:27.287Z,100969.00
2022-08-27T05:56:55.180Z,100974.60
2022-08-27T05:59:45.994Z,100969.80
2022-08-27T06:02:13.798Z,100978.40
2022-08-27T06:04:41.682Z,100974.00
2022-08-27T06:07:10.593Z,100976.20
2022-08-27T06:09:39.247Z,100976.80
2022-08-27T06:12:08.021Z,100978.00
2022-08-27T06:14:37.337Z,100972.80
2022-08-27T06:17:06.409Z,100973.00
2022-08-27T06:19:36.281Z,100973.80
2022-08-27T06:22:10.057Z,100979.60
2022-08-27T06:24:41.870Z,100976.60
2022-08-27T06:27:14.003Z,100976.60
2022-08-27T06:29:43.329Z,100979.20
2022-08-27T06:32:13.125Z,100980.00
2022-08-27T06:34:41.051Z,100980.80
2022-08-27T06:37:09.290Z,100980.20
2022-08-27T06:39:39.721Z,100982.80
2022-08-27T06:42:11.963Z,100987.00
2022-08-27T06:44:42.071Z,100985.20
2022-08-27T06:47:10.199Z,100987.40
2022-08-27T06:49:41.308Z,100988.20
2022-08-27T06:52:11.610Z,100989.80
2022-08-27T06:54:40.266Z,100992.20
2022-08-27T06:57:08.040Z,100989.60
2022-08-27T06:59:35.985Z,100992.00
2022-08-27T07:02:04.218Z,100989.80
2022-08-27T07:04:33.022Z,100993.80
2022-08-27T07:07:02.706Z,100996.00
2022-08-27T07:09:34.400Z,100998.80
2022-08-27T07:12:02.469Z,101001.40
2022-08-27T07:14:35.677Z,101002.40
2022-08-27T07:17:11.189Z,101000.40
2022-08-27T07:19:44.355Z,100999.00
2022-08-27T07:22:13.074Z,101003.60
2022-08-27T07:24:41.093Z,101002.80
2022-08-27T07:27:09.610Z,101003.20
2022-08-27T07:29:37.408Z,101005.00
2022-08-27T07:32:05.473Z,101008.60
2022-08-27T07:34:33.153Z,101012.00
2022-08-27T07:37:00.847Z,101012.60
2022-08-27T07:39:28.589Z,101016.60
2022-08-27T07:42:16.621Z,101022.80
2022-08-27T07:44:44.471Z,101021.60
2022-08-27T07:47:12.297Z,101022.40
2022-08-27T07:49:41.096Z,101022.00
2022-08-27T07:52:08.825Z,101024.40
2022-08-27T07:54:36.596Z,101022.60
2022-08-27T07:57:04.875Z,101020.00
2022-08-27T07:59:33.087Z,101025.80
2022-08-27T08:02:01.082Z,101022.40
2022-08-27T08:04:29.021Z,101024.80
2022-08-27T08:06:56.854Z,101021.40
2022-08-27T08:09:24.984Z,101024.00
2022-08-27T08:11:54.050Z,101029.00
2022-08-27T08:14:22.473Z,101030.60
2022-08-27T08:16:50.630Z,101028.60
2022-08-27T08:19:18.422Z,101025.60
2022-08-27T08:21:46.093Z,101031.60
2022-08-27T08:24:13.774Z,101034.20
2022-08-27T08:26:42.041Z,101031.80
2022-08-27T08:29:16.662Z,101030.60
2022-08-27T08:31:50.243Z,101033.60
2022-08-27T08:34:19.983Z,101031.80
2022-08-27T08:36:53.982Z,101033.00
2022-08-27T08:39:24.160Z,101026.00
2022-08-27T08:41:57.286Z,101026.60
2022-08-27T08:44:41.295Z,101031.60
2022-08-27T08:47:50.589Z,101034.20
2022-08-27T08:50:30.592Z,101028.80
2022-08-27T08:53:11.638Z,101027.80
2022-08-27T08:55:48.790Z,101033.00
2022-08-27T08:58:40.610Z,101031.80
2022-08-27T09:01:10.210Z,101032.80
2022-08-27T09:03:42.137Z,101035.80
2022-08-27T09:06:27.714Z,101043.60
2022-08-27T09:08:56.148Z,101040.60
2022-08-27T09:11:51.711Z,101041.20
2022-08-27T09:14:32.233Z,101040.00
2022-08-27T09:17:02.577Z,101040.40
2022-08-27T09:19:37.151Z,101041.60
2022-08-27T09:22:38.331Z,101041.40
2022-08-27T09:25:25.524Z,101042.00
2022-08-27T09:27:57.545Z,101046.60
2022-08-27T09:30:32.059Z,101041.80
2022-08-27T09:33:04.394Z,101046.00
2022-08-27T09:35:42.234Z,101048.60
2022-08-27T09:38:10.839Z,101050.40
2022-08-27T09:40:47.073Z,101046.40
2022-08-27T09:43:17.446Z,101043.80
2022-08-27T09:45:59.678Z,101041.00
2022-08-27T09:48:32.489Z,101038.20
2022-08-27T09:51:21.742Z,101037.40
2022-08-27T09:53:57.468Z,101038.40
2022-08-27T09:56:39.160Z,101037.40
2022-08-27T09:59:24.655Z,101034.20
2022-08-27T10:02:04.288Z,101036.60
2022-08-27T10:04:51.398Z,101037.00
2022-08-27T10:07:53.805Z,101034.20
2022-08-27T10:10:38.475Z,101031.40
2022-08-27T10:13:20.379Z,101026.20
2022-08-27T10:16:09.762Z,101026.60
2022-08-27T10:18:56.717Z,101027.60
2022-08-27T10:21:45.792Z,101028.40
2022-08-27T10:25:17.045Z,101030.80
2022-08-27T10:27:59.500Z,101030.60
2022-08-27T10:31:00.529Z,101021.60
2022-08-27T10:34:22.217Z,101026.80
2022-08-27T10:37:16.055Z,101024.00
2022-08-27T10:40:03.508Z,101024.80
2022-08-27T10:43:17.070Z,101019.20
2022-08-27T10:46:04.157Z,101017.20
2022-08-27T10:48:53.974Z,101018.00
2022-08-27T10:51:53.698Z,101019.60
2022-08-27T10:54:31.900Z,101017.60
2022-08-27T10:57:40.255Z,101011.40
2022-08-27T11:00:21.199Z,101017.40
2022-08-27T11:02:58.618Z,101018.20
2022-08-27T11:05:36.972Z,101020.80
2022-08-27T11:08:19.738Z,101011.40
2022-08-27T11:10:53.566Z,101009.80
2022-08-27T11:13:33.777Z,101008.60
2022-08-27T11:16:10.703Z,101008.40
2022-08-27T11:19:02.689Z,101004.40
2022-08-27T11:22:07.114Z,101011.00
2022-08-27T11:24:59.750Z,101006.00
2022-08-27T11:27:32.808Z,101006.80
2022-08-27T11:30:29.227Z,101006.60
2022-08-27T11:33:21.134Z,101003.00
2022-08-27T11:36:32.005Z,101001.40
2022-08-27T11:39:33.737Z,100998.00
2022-08-27T11:42:14.073Z,100996.00
2022-08-27T11:44:50.771Z,100991.40
2022-08-27T11:47:26.245Z,100989.40
2022-08-27T11:50:01.386Z,100992.00
2022-08-27T11:52:41.803Z,100997.20
2022-08-27T11:55:21.654Z,100998.60
2022-08-27T11:58:09.454Z,100997.80
2022-08-27T12:00:42.097Z,101000.80
2022-08-27T12:03:19.016Z,100998.60
2022-08-27T12:05:54.140Z,101001.20
2022-08-27T12:08:21.837Z,101003.20
2022-08-27T12:11:27.484Z,100994.20
2022-08-27T12:14:32.281Z,100994.60
2022-08-27T12:17:08.228Z,100990.40
2022-08-27T12:19:57.030Z,100989.60
2022-08-27T12:23:09.576Z,100997.80
2022-08-27T12:25:37.323Z,100991.80
2022-08-27T12:28:09.288Z,100988.20
2022-08-27T12:30:41.387Z,100988.40
2022-08-27T12:33:26.523Z,100987.00
2022-08-27T12:35:58.013Z,100990.20
2022-08-27T12:38:31.931Z,101000.80
2022-08-27T12:41:04.052Z,100993.40
2022-08-27T12:43:35.538Z,101001.80
2022-08-27T12:46:06.676Z,101002.00
2022-08-27T12:48:41.873Z,100998.20
2022-08-27T12:51:31.246Z,101005.80
2022-08-27T12:54:13.176Z,101010.20
2022-08-27T12:56:58.889Z,101012.00
2022-08-27T13:00:00.052Z,101009.00
2022-08-27T13:02:27.650Z,101004.00
2022-08-27T13:04:55.847Z,101007.00
2022-08-27T13:07:38.293Z,101010.80
2022-08-27T13:10:18.409Z,101007.40
2022-08-27T13:12:48.977Z,101007.20
2022-08-27T13:15:19.974Z,101006.80
2022-08-27T13:17:49.457Z,101002.00
2022-08-27T13:20:24.587Z,100998.20
2022-08-27T13:22:54.252Z,100994.20
2022-08-27T13:25:36.772Z,100994.80
2022-08-27T13:28:13.250Z,100990.40
2022-08-27T13:30:45.968Z,100984.20
2022-08-27T13:33:22.169Z,100985.20
2022-08-27T13:35:51.228Z,100982.80
2022-08-27T13:38:22.524Z,100980.80
2022-08-27T13:40:57.980Z,100980.80
2022-08-27T13:43:43.529Z,100978.00
2022-08-27T13:46:21.478Z,100978.80
2022-08-27T13:48:54.882Z,100978.00
2022-08-27T13:51:33.351Z,100971.20
2022-08-27T13:54:12.943Z,100972.00
2022-08-27T13:56:48.974Z,100969.20
2022-08-27T13:59:20.036Z,100963.20
2022-08-27T14:02:31.867Z,100958.60
2022-08-27T14:05:28.067Z,100958.20
2022-08-27T14:08:13.325Z,100966.20
2022-08-27T14:10:47.697Z,100955.00
2022-08-27T14:13:23.670Z,100961.00
2022-08-27T14:16:00.257Z,100961.20
2022-08-27T14:18:57.415Z,100961.00
2022-08-27T14:21:22.702Z,100964.40
2022-08-27T14:23:52.359Z,100967.20
2022-08-27T14:26:20.377Z,100968.80
2022-08-27T14:28:48.429Z,100971.00
2022-08-27T14:31:16.582Z,100972.60
2022-08-27T14:33:47.417Z,100975.60
2022-08-27T14:36:16.313Z,100973.40
2022-08-27T14:38:48.085Z,100970.20
2022-08-27T14:41:17.194Z,100968.60
2022-08-27T14:43:49.757Z,100965.20
2022-08-27T14:46:30.070Z,100969.40
2022-08-27T14:49:00.950Z,100970.80
2022-08-27T14:51:32.159Z,100962.00
2022-08-27T14:53:59.828Z,100963.60
2022-08-27T14:56:27.578Z,100962.80
2022-08-27T14:58:55.630Z,100967.20
2022-08-27T15:01:26.131Z,100967.60
2022-08-27T15:03:54.850Z,100966.80
2022-08-27T15:06:23.994Z,100963.00
2022-08-27T15:08:52.253Z,100965.40
2022-08-27T15:11:28.051Z,100968.40
2022-08-27T15:13:58.135Z,100967.00
2022-08-27T15:16:31.361Z,100967.80
2022-08-27T15:19:01.433Z,100967.20
2022-08-27T15:21:31.073Z,100961.00
2022-08-27T15:24:03.425Z,100962.20
2022-08-27T15:26:31.627Z,100960.00
2022-08-27T15:29:04.095Z,100961.00
2022-08-27T15:31:34.886Z,100957.60
2022-08-27T15:34:03.145Z,100968.60
2022-08-27T15:36:30.850Z,100969.00
2022-08-27T15:38:58.561Z,100968.00
2022-08-27T15:41:29.286Z,100967.40
2022-08-27T15:43:57.903Z,100965.60
2022-08-27T15:46:26.563Z,100963.60
2022-08-27T15:48:54.331Z,100968.60
2022-08-27T15:51:29.067Z,100967.40
2022-08-27T15:53:58.195Z,100974.20
2022-08-27T15:56:29.456Z,100970.20
2022-08-27T15:59:00.308Z,100966.60
2022-08-27T16:01:35.843Z,100969.00
2022-08-27T16:04:06.100Z,100971.80
2022-08-27T16:06:34.969Z,100971.00
2022-08-27T16:09:04.769Z,100967.60
2022-08-27T16:11:32.641Z,100965.40
2022-08-27T16:14:01.349Z,100972.40
2022-08-27T16:16:32.408Z,100967.80
2022-08-27T16:19:02.882Z,100976.80
2022-08-27T16:21:31.102Z,100976.80
2022-08-27T16:23:58.789Z,100975.80
2022-08-27T16:26:26.501Z,100972.80
2022-08-27T16:28:54.473Z,100971.60
2022-08-27T16:31:22.252Z,100972.20
2022-08-27T16:33:50.186Z,100977.00
2022-08-27T16:36:18.482Z,100974.20
2022-08-27T16:38:46.278Z,100982.00
2022-08-27T16:41:14.265Z,100981.40
2022-08-27T16:43:43.302Z,100981.40
2022-08-27T16:46:11.098Z,100985.60
2022-08-27T16:49:01.208Z,100985.00
2022-08-27T16:51:34.522Z,100982.00
2022-08-27T16:54:06.189Z,100977.40
2022-08-27T16:56:37.770Z,100976.00
2022-08-27T16:59:07.553Z,100974.80
2022-08-27T17:01:35.399Z,100979.20
2022-08-27T17:04:10.493Z,100980.60
2022-08-27T17:06:44.709Z,100981.40
2022-08-27T17:09:13.955Z,100974.60
2022-08-27T17:11:43.532Z,100976.60
2022-08-27T17:14:12.238Z,100977.60
2022-08-27T17:16:41.593Z,100978.80
2022-08-27T17:19:16.825Z,100980.00
2022-08-27T17:21:46.051Z,100979.20
2022-08-27T17:24:13.958Z,100971.80
2022-08-27T17:26:41.674Z,100970.60
2022-08-27T17:29:09.689Z,100969.80
2022-08-27T17:31:41.629Z,100973.60
2022-08-27T17:34:21.538Z,100972.00
2022-08-27T17:36:51.928Z,100972.40
2022-08-27T17:39:20.791Z,100968.20
2022-08-27T17:41:52.626Z,100967.60
2022-08-27T17:44:31.706Z,100965.60
2022-08-27T17:47:05.825Z,100963.00
2022-08-27T17:49:34.507Z,100962.80
2022-08-27T17:52:09.634Z,100967.00
2022-08-27T17:54:37.235Z,100965.80
2022-08-27T17:57:16.401Z,100967.20
2022-08-27T17:59:45.151Z,100968.00
2022-08-27T18:02:22.132Z,100972.60
2022-08-27T18:04:50.781Z,100975.20
2022-08-27T18:07:19.423Z,100973.20
2022-08-27T18:09:49.029Z,100979.20
2022-08-27T18:12:21.692Z,100974.60
2022-08-27T18:15:02.102Z,100981.80
2022-08-27T18:17:30.215Z,100990.40
2022-08-27T18:19:59.390Z,100990.00
2022-08-27T18:22:27.900Z,100993.20
2022-08-27T18:25:02.892Z,100998.20
2022-08-27T18:27:34.019Z,101000.40
2022-08-27T18:30:02.840Z,101008.40
2022-08-27T18:32:31.078Z,101008.00
2022-08-27T18:35:14.977Z,101016.40
2022-08-27T18:37:42.676Z,101019.80
2022-08-27T18:40:12.842Z,101022.40
2022-08-27T18:42:41.209Z,101023.20
2022-08-27T18:45:16.642Z,101031.80
2022-08-27T18:47:45.279Z,101033.20
2022-08-27T18:50:17.518Z,101038.00
2022-08-27T18:52:49.974Z,101045.40
2022-08-27T18:55:24.705Z,101039.60
2022-08-27T18:57:52.491Z,101043.00
2022-08-27T19:00:21.137Z,101052.00
2022-08-27T19:02:53.476Z,101055.60
2022-08-27T19:05:26.921Z,101059.80
2022-08-27T19:07:58.175Z,101057.80
2022-08-27T19:10:26.942Z,101064.20
2022-08-27T19:12:55.030Z,101066.40
2022-08-27T19:15:23.047Z,101068.40
2022-08-27T19:17:57.371Z,101070.60
2022-08-27T19:20:27.412Z,101074.00
2022-08-27T19:22:55.813Z,101078.40
2022-08-27T19:25:23.543Z,101080.20
2022-08-27T19:27:52.693Z,101074.80
2022-08-27T19:30:20.711Z,101085.20
2022-08-27T19:32:48.416Z,101080.00
2022-08-27T19:35:22.782Z,101083.00
2022-08-27T19:37:53.261Z,101091.20
2022-08-27T19:40:22.911Z,101093.00
2022-08-27T19:42:51.118Z,101094.40
2022-08-27T19:45:23.109Z,101097.60
2022-08-27T19:47:53.040Z,101098.00
2022-08-27T19:50:23.588Z,101099.20
2022-08-27T19:52:52.399Z,101105.80
2022-08-27T19:55:20.816Z,101114.80
2022-08-27T19:57:49.914Z,101113.60
2022-08-27T20:00:22.239Z,101111.80
2022-08-27T20:02:50.755Z,101116.80
2022-08-27T20:05:21.178Z,101113.60
2022-08-27T20:07:52.752Z,101116.60
2022-08-27T20:10:23.336Z,101116.80
2022-08-27T20:13:00.818Z,101124.80
2022-08-27T20:15:28.533Z,101129.00
2022-08-27T20:17:59.197Z,101130.20
2022-08-27T20:20:28.606Z,101127.80
2022-08-27T20:22:57.234Z,101128.40
2022-08-27T20:25:26.363Z,101135.40
2022-08-27T20:27:54.616Z,101139.00
2022-08-27T20:30:27.884Z,101142.80
2022-08-27T20:32:57.183Z,101148.20
2022-08-27T20:35:27.550Z,101149.00
2022-08-27T20:37:55.370Z,101153.80
2022-08-27T20:40:33.193Z,101155.20
2022-08-27T20:43:01.910Z,101159.20
2022-08-27T20:45:32.302Z,101161.00
2022-08-27T20:48:00.860Z,101161.20
2022-08-27T20:50:32.173Z,101165.00
2022-08-27T20:53:00.738Z,101164.40
2022-08-27T20:55:30.008Z,101167.20
2022-08-27T20:58:16.160Z,101168.00
2022-08-27T21:00:43.937Z,101169.20
2022-08-27T21:03:15.003Z,101173.80
2022-08-27T21:05:46.997Z,101171.00
2022-08-27T21:08:18.653Z,101171.40
2022-08-27T21:10:54.955Z,101175.40
2022-08-27T21:13:24.794Z,101172.80
2022-08-27T21:15:54.603Z,101171.80
2022-08-27T21:18:29.952Z,101175.00
2022-08-27T21:21:04.736Z,101179.00
2022-08-27T21:23:35.446Z,101182.00
2022-08-27T21:26:10.045Z,101189.60
2022-08-27T21:28:41.578Z,101189.20
2022-08-27T21:31:10.142Z,101186.00
2022-08-27T21:33:39.667Z,101186.40
2022-08-27T21:36:11.834Z,101188.80
2022-08-27T21:38:40.710Z,101185.60
2022-08-27T21:41:09.057Z,101184.40
2022-08-27T21:43:37.425Z,101185.40
2022-08-27T21:46:05.870Z,101188.40
2022-08-27T21:48:34.026Z,101193.20
2022-08-27T21:51:12.104Z,101188.60
2022-08-27T21:53:41.026Z,101194.00
2022-08-27T21:56:12.112Z,101192.80
2022-08-27T21:58:40.722Z,101195.60
2022-08-27T22:01:08.687Z,101197.60
2022-08-27T22:03:36.854Z,101195.40
2022-08-27T22:06:07.212Z,101196.60
2022-08-27T22:08:35.175Z,101204.60
2022-08-27T22:11:03.065Z,101200.40
2022-08-27T22:13:32.693Z,101204.00
2022-08-27T22:16:00.623Z,101210.60
2022-08-27T22:18:28.813Z,101214.80
2022-08-27T22:20:58.818Z,101215.40
2022-08-27T22:23:27.524Z,101209.60
2022-08-27T22:25:55.346Z,101211.00
2022-08-27T22:28:23.462Z,101216.60
2022-08-27T22:30:51.310Z,101221.80
2022-08-27T22:33:19.068Z,101225.20
2022-08-27T22:35:47.723Z,101227.80
2022-08-27T22:38:15.669Z,101228.00
2022-08-27T22:40:43.921Z,101226.20
2022-08-27T22:43:12.534Z,101224.20
2022-08-27T22:45:40.299Z,101228.20
2022-08-27T22:48:08.256Z,101224.80
2022-08-27T22:50:36.081Z,101224.80
2022-08-27T22:53:04.292Z,101224.60
2022-08-27T22:55:31.992Z,101231.20
2022-08-27T22:58:02.047Z,101226.20
2022-08-27T23:00:35.437Z,101230.60
2022-08-27T23:03:07.135Z,101229.80
2022-08-27T23:05:41.753Z,101233.20
2022-08-27T23:08:14.103Z,101235.00
2022-08-27T23:10:43.495Z,101236.80
2022-08-27T23:13:13.298Z,101236.40
2022-08-27T23:15:42.123Z,101236.20
2022-08-27T23:18:10.377Z,101233.80
2022-08-27T23:20:38.174Z,101228.40
2022-08-27T23:23:07.967Z,101230.60
2022-08-27T23:25:54.880Z,101237.80
2022-08-27T23:28:23.490Z,101239.00
2022-08-27T23:30:51.904Z,101242.00
2022-08-27T23:33:20.077Z,101232.00
2022-08-27T23:35:51.317Z,101239.40
2022-08-27T23:38:20.139Z,101239.00
2022-08-27T23:40:50.353Z,101244.20
2022-08-27T23:43:18.440Z,101238.40
2022-08-27T23:45:46.292Z,101238.60
2022-08-27T23:48:14.293Z,101237.00
2022-08-27T23:50:42.851Z,101240.20
2022-08-27T23:53:11.838Z,101238.20
2022-08-27T23:55:40.950Z,101241.80
2022-08-27T23:58:09.897Z,101237.80
